sensor_id;sensor_type;location;lat;lon;timestamp;temperature;humidity
39621;DHT22;25309;48.686;9.170;2024-01-30T00:00:48;5.00;99.90
39621;DHT22;25309;48.686;9.170;2024-01-30T00:03:15;5.00;99.90
39621;DHT22;25309;48.686;9.170;2024-01-30T00:05:42;5.00;99.90
39621;DHT22;25309;48.686;9.170;2024-01-30T00:08:09;4.90;99.90
39621;DHT22;25309;48.686;9.170;2024-01-30T00:10:36;4.90;99.90
39621;DHT22;25309;48.686;9.170;2024-01-30T00:13:03;4.90;99.90
39621;DHT22;25309;48.686;9.170;2024-01-30T00:15:30;4.90;99.90
39621;DHT22;25309;48.686;9.170;2024-01-30T00:17:59;4.80;99.90
39621;DHT22;25309;48.686;9.170;2024-01-30T00:20:26;4.90;99.90
39621;DHT22;25309;48.686;9.170;2024-01-30T00:22:53;4.80;99.90
39621;DHT22;25309;48.686;9.170;2024-01-30T00:25:20;4.80;99.90
39621;DHT22;25309;48.686;9.170;2024-01-30T00:27:48;4.70;99.90
39621;DHT22;25309;48.686;9.170;2024-01-30T00:30:15;4.60;99.90
39621;DHT22;25309;48.686;9.170;2024-01-30T00:32:42;4.60;99.90
39621;DHT22;25309;48.686;9.170;2024-01-30T00:35:11;4.60;99.90
39621;DHT22;25309;48.686;9.170;2024-01-30T00:37:38;4.60;99.90
39621;DHT22;25309;48.686;9.170;2024-01-30T00:40:05;4.60;99.90
39621;DHT22;25309;48.686;9.170;2024-01-30T00:42:33;4.60;99.90
39621;DHT22;25309;48.686;9.170;2024-01-30T00:45:00;4.60;99.90
39621;DHT22;25309;48.686;9.170;2024-01-30T00:47:27;4.60;99.90
39621;DHT22;25309;48.686;9.170;2024-01-30T00:49:56;4.60;99.90
39621;DHT22;25309;48.686;9.170;2024-01-30T00:52:24;4.50;99.90
39621;DHT22;25309;48.686;9.170;2024-01-30T00:54:51;4.40;99.90
39621;DHT22;25309;48.686;9.170;2024-01-30T00:57:18;4.40;99.90
39621;DHT22;25309;48.686;9.170;2024-01-30T00:59:45;4.40;99.90
39621;DHT22;25309;48.686;9.170;2024-01-30T01:02:12;4.40;99.90
39621;DHT22;25309;48.686;9.170;2024-01-30T01:04:40;4.40;99.90
39621;DHT22;25309;48.686;9.170;2024-01-30T01:07:07;4.40;99.90
39621;DHT22;25309;48.686;9.170;2024-01-30T01:09:36;4.40;99.90
39621;DHT22;25309;48.686;9.170;2024-01-30T01:12:04;4.40;99.90
39621;DHT22;25309;48.686;9.170;2024-01-30T01:14:31;4.30;99.90
39621;DHT22;25309;48.686;9.170;2024-01-30T01:16:58;4.30;99.90
39621;DHT22;25309;48.686;9.170;2024-01-30T01:19:25;4.40;99.90
39621;DHT22;25309;48.686;9.170;2024-01-30T01:21:52;4.40;99.90
39621;DHT22;25309;48.686;9.170;2024-01-30T01:24:19;4.50;99.90
39621;DHT22;25309;48.686;9.170;2024-01-30T01:26:48;4.60;99.90
39621;DHT22;25309;48.686;9.170;2024-01-30T01:29:15;4.60;99.90
39621;DHT22;25309;48.686;9.170;2024-01-30T01:31:42;4.70;99.90
39621;DHT22;25309;48.686;9.170;2024-01-30T01:34:13;4.70;99.90
39621;DHT22;25309;48.686;9.170;2024-01-30T01:36:40;4.70;99.90
39621;DHT22;25309;48.686;9.170;2024-01-30T01:39:07;4.70;99.90
39621;DHT22;25309;48.686;9.170;2024-01-30T01:41:35;4.70;99.90
39621;DHT22;25309;48.686;9.170;2024-01-30T01:44:04;4.70;99.90
39621;DHT22;25309;48.686;9.170;2024-01-30T01:46:33;4.70;99.90
39621;DHT22;25309;48.686;9.170;2024-01-30T01:49:02;4.60;99.90
39621;DHT22;25309;48.686;9.170;2024-01-30T01:51:33;4.60;99.90
39621;DHT22;25309;48.686;9.170;2024-01-30T01:54:03;4.60;99.90
39621;DHT22;25309;48.686;9.170;2024-01-30T01:56:30;4.60;99.90
39621;DHT22;25309;48.686;9.170;2024-01-30T01:59:00;4.50;99.90
39621;DHT22;25309;48.686;9.170;2024-01-30T02:01:29;4.50;99.90
39621;DHT22;25309;48.686;9.170;2024-01-30T02:03:56;4.50;99.90
39621;DHT22;25309;48.686;9.170;2024-01-30T02:06:23;4.40;99.90
39621;DHT22;25309;48.686;9.170;2024-01-30T02:08:50;4.30;99.90
39621;DHT22;25309;48.686;9.170;2024-01-30T02:11:18;4.30;99.90
39621;DHT22;25309;48.686;9.170;2024-01-30T02:13:45;4.20;99.90
39621;DHT22;25309;48.686;9.170;2024-01-30T02:16:12;4.20;99.90
39621;DHT22;25309;48.686;9.170;2024-01-30T02:18:40;4.10;99.90
39621;DHT22;25309;48.686;9.170;2024-01-30T02:21:16;4.00;99.90
39621;DHT22;25309;48.686;9.170;2024-01-30T02:23:43;4.00;99.90
39621;DHT22;25309;48.686;9.170;2024-01-30T02:26:11;4.00;99.90
39621;DHT22;25309;48.686;9.170;2024-01-30T02:28:38;4.00;99.90
39621;DHT22;25309;48.686;9.170;2024-01-30T02:31:05;3.90;99.90
39621;DHT22;25309;48.686;9.170;2024-01-30T02:33:33;3.90;99.90
39621;DHT22;25309;48.686;9.170;2024-01-30T02:36:00;3.80;99.90
39621;DHT22;25309;48.686;9.170;2024-01-30T02:38:28;3.70;99.90
39621;DHT22;25309;48.686;9.170;2024-01-30T02:40:55;3.70;99.90
39621;DHT22;25309;48.686;9.170;2024-01-30T02:43:23;3.60;99.90
39621;DHT22;25309;48.686;9.170;2024-01-30T02:45:50;3.60;99.90
39621;DHT22;25309;48.686;9.170;2024-01-30T02:48:17;3.50;99.90
39621;DHT22;25309;48.686;9.170;2024-01-30T02:50:45;3.50;99.90
39621;DHT22;25309;48.686;9.170;2024-01-30T02:53:12;3.40;99.90
39621;DHT22;25309;48.686;9.170;2024-01-30T02:55:41;3.40;99.90
39621;DHT22;25309;48.686;9.170;2024-01-30T02:58:08;3.40;99.90
39621;DHT22;25309;48.686;9.170;2024-01-30T03:00:36;3.40;99.90
39621;DHT22;25309;48.686;9.170;2024-01-30T03:03:03;3.30;99.90
39621;DHT22;25309;48.686;9.170;2024-01-30T03:05:30;3.30;99.90
39621;DHT22;25309;48.686;9.170;2024-01-30T03:07:57;3.30;99.90
39621;DHT22;25309;48.686;9.170;2024-01-30T03:10:24;3.20;99.90
39621;DHT22;25309;48.686;9.170;2024-01-30T03:12:53;3.10;99.90
39621;DHT22;25309;48.686;9.170;2024-01-30T03:15:20;3.10;99.90
39621;DHT22;25309;48.686;9.170;2024-01-30T03:17:47;3.10;99.90
39621;DHT22;25309;48.686;9.170;2024-01-30T03:20:14;3.10;99.90
39621;DHT22;25309;48.686;9.170;2024-01-30T03:22:41;3.10;99.90
39621;DHT22;25309;48.686;9.170;2024-01-30T03:25:08;3.10;99.90
39621;DHT22;25309;48.686;9.170;2024-01-30T03:27:36;3.00;99.90
39621;DHT22;25309;48.686;9.170;2024-01-30T03:30:06;3.00;99.90
39621;DHT22;25309;48.686;9.170;2024-01-30T03:32:33;3.00;99.90
39621;DHT22;25309;48.686;9.170;2024-01-30T03:35:00;2.90;99.90
39621;DHT22;25309;48.686;9.170;2024-01-30T03:37:28;2.90;99.90
39621;DHT22;25309;48.686;9.170;2024-01-30T03:39:55;2.90;99.90
39621;DHT22;25309;48.686;9.170;2024-01-30T03:42:22;2.80;99.90
39621;DHT22;25309;48.686;9.170;2024-01-30T03:44:49;2.70;99.90
39621;DHT22;25309;48.686;9.170;2024-01-30T03:47:21;2.70;99.90
39621;DHT22;25309;48.686;9.170;2024-01-30T03:49:48;2.70;99.90
39621;DHT22;25309;48.686;9.170;2024-01-30T03:52:15;2.70;99.90
39621;DHT22;25309;48.686;9.170;2024-01-30T03:54:43;2.70;99.90
39621;DHT22;25309;48.686;9.170;2024-01-30T03:57:10;2.60;99.90
39621;DHT22;25309;48.686;9.170;2024-01-30T03:59:36;2.60;99.90
39621;DHT22;25309;48.686;9.170;2024-01-30T04:02:04;2.60;99.90
39621;DHT22;25309;48.686;9.170;2024-01-30T04:04:32;2.60;99.90
39621;DHT22;25309;48.686;9.170;2024-01-30T04:07:00;2.50;99.90
39621;DHT22;25309;48.686;9.170;2024-01-30T04:09:27;2.60;99.90
39621;DHT22;25309;48.686;9.170;2024-01-30T04:11:55;2.60;99.90
39621;DHT22;25309;48.686;9.170;2024-01-30T04:14:22;2.50;99.90
39621;DHT22;25309;48.686;9.170;2024-01-30T04:16:49;2.40;99.90
39621;DHT22;25309;48.686;9.170;2024-01-30T04:19:16;2.50;99.90
39621;DHT22;25309;48.686;9.170;2024-01-30T04:21:45;2.40;99.90
39621;DHT22;25309;48.686;9.170;2024-01-30T04:24:12;2.40;99.90
39621;DHT22;25309;48.686;9.170;2024-01-30T04:26:39;2.40;99.90
39621;DHT22;25309;48.686;9.170;2024-01-30T04:29:06;2.40;99.90
39621;DHT22;25309;48.686;9.170;2024-01-30T04:31:32;2.40;99.90
39621;DHT22;25309;48.686;9.170;2024-01-30T04:33:59;2.40;99.90
39621;DHT22;25309;48.686;9.170;2024-01-30T04:36:26;2.30;99.90
39621;DHT22;25309;48.686;9.170;2024-01-30T04:38:55;2.40;99.90
39621;DHT22;25309;48.686;9.170;2024-01-30T04:41:22;2.30;99.90
39621;DHT22;25309;48.686;9.170;2024-01-30T04:43:49;2.30;99.90
39621;DHT22;25309;48.686;9.170;2024-01-30T04:46:16;2.20;99.90
39621;DHT22;25309;48.686;9.170;2024-01-30T04:48:43;2.20;99.90
39621;DHT22;25309;48.686;9.170;2024-01-30T04:51:10;2.20;99.90
39621;DHT22;25309;48.686;9.170;2024-01-30T04:53:37;2.20;99.90
39621;DHT22;25309;48.686;9.170;2024-01-30T04:56:06;2.20;99.90
39621;DHT22;25309;48.686;9.170;2024-01-30T04:58:33;2.20;99.90
39621;DHT22;25309;48.686;9.170;2024-01-30T05:01:00;2.20;99.90
39621;DHT22;25309;48.686;9.170;2024-01-30T05:03:27;2.20;99.90
39621;DHT22;25309;48.686;9.170;2024-01-30T05:05:54;2.10;99.90
39621;DHT22;25309;48.686;9.170;2024-01-30T05:08:21;2.10;99.90
39621;DHT22;25309;48.686;9.170;2024-01-30T05:10:49;2.10;99.90
39621;DHT22;25309;48.686;9.170;2024-01-30T05:13:17;2.10;99.90
39621;DHT22;25309;48.686;9.170;2024-01-30T05:15:44;2.10;99.90
39621;DHT22;25309;48.686;9.170;2024-01-30T05:18:11;2.20;99.90
39621;DHT22;25309;48.686;9.170;2024-01-30T05:20:39;2.20;99.90
39621;DHT22;25309;48.686;9.170;2024-01-30T05:23:06;2.20;99.90
39621;DHT22;25309;48.686;9.170;2024-01-30T05:25:33;2.20;99.90
39621;DHT22;25309;48.686;9.170;2024-01-30T05:28:00;2.20;99.90
39621;DHT22;25309;48.686;9.170;2024-01-30T05:30:28;2.20;99.90
39621;DHT22;25309;48.686;9.170;2024-01-30T05:32:55;2.20;99.90
39621;DHT22;25309;48.686;9.170;2024-01-30T05:35:22;2.20;99.90
39621;DHT22;25309;48.686;9.170;2024-01-30T05:37:49;2.10;99.90
39621;DHT22;25309;48.686;9.170;2024-01-30T05:40:17;2.10;99.90
39621;DHT22;25309;48.686;9.170;2024-01-30T05:42:44;2.10;99.90
39621;DHT22;25309;48.686;9.170;2024-01-30T05:45:11;2.10;99.90
39621;DHT22;25309;48.686;9.170;2024-01-30T05:47:39;2.10;99.90
39621;DHT22;25309;48.686;9.170;2024-01-30T05:50:07;2.10;99.90
39621;DHT22;25309;48.686;9.170;2024-01-30T05:52:34;2.10;99.90
39621;DHT22;25309;48.686;9.170;2024-01-30T05:55:01;2.10;99.90
39621;DHT22;25309;48.686;9.170;2024-01-30T05:57:29;2.00;99.90
39621;DHT22;25309;48.686;9.170;2024-01-30T05:59:57;2.00;99.90
39621;DHT22;25309;48.686;9.170;2024-01-30T06:02:24;2.10;99.90
39621;DHT22;25309;48.686;9.170;2024-01-30T06:04:52;2.10;99.90
39621;DHT22;25309;48.686;9.170;2024-01-30T06:07:20;2.10;99.90
39621;DHT22;25309;48.686;9.170;2024-01-30T06:09:47;2.00;99.90
39621;DHT22;25309;48.686;9.170;2024-01-30T06:12:14;2.00;99.90
39621;DHT22;25309;48.686;9.170;2024-01-30T06:14:41;2.00;99.90
39621;DHT22;25309;48.686;9.170;2024-01-30T06:17:13;2.00;99.90
39621;DHT22;25309;48.686;9.170;2024-01-30T06:19:40;2.00;99.90
39621;DHT22;25309;48.686;9.170;2024-01-30T06:22:09;2.00;99.90
39621;DHT22;25309;48.686;9.170;2024-01-30T06:24:36;2.10;99.90
39621;DHT22;25309;48.686;9.170;2024-01-30T06:27:04;2.10;99.90
39621;DHT22;25309;48.686;9.170;2024-01-30T06:29:31;2.10;99.90
39621;DHT22;25309;48.686;9.170;2024-01-30T06:31:58;2.10;99.90
39621;DHT22;25309;48.686;9.170;2024-01-30T06:34:25;2.20;99.90
39621;DHT22;25309;48.686;9.170;2024-01-30T06:36:53;2.20;99.90
39621;DHT22;25309;48.686;9.170;2024-01-30T06:39:21;2.20;99.90
39621;DHT22;25309;48.686;9.170;2024-01-30T06:41:48;2.20;99.90
39621;DHT22;25309;48.686;9.170;2024-01-30T06:44:16;2.20;99.90
39621;DHT22;25309;48.686;9.170;2024-01-30T06:46:43;2.20;99.90
39621;DHT22;25309;48.686;9.170;2024-01-30T06:49:10;2.20;99.90
39621;DHT22;25309;48.686;9.170;2024-01-30T06:51:37;2.20;99.90
39621;DHT22;25309;48.686;9.170;2024-01-30T06:54:04;2.10;99.90
39621;DHT22;25309;48.686;9.170;2024-01-30T06:56:33;2.10;99.90
39621;DHT22;25309;48.686;9.170;2024-01-30T06:59:00;2.10;99.90
39621;DHT22;25309;48.686;9.170;2024-01-30T07:01:28;2.20;99.90
39621;DHT22;25309;48.686;9.170;2024-01-30T07:03:56;2.20;99.90
39621;DHT22;25309;48.686;9.170;2024-01-30T07:06:23;2.20;99.90
39621;DHT22;25309;48.686;9.170;2024-01-30T07:08:50;2.20;99.90
39621;DHT22;25309;48.686;9.170;2024-01-30T07:11:18;2.20;99.90
39621;DHT22;25309;48.686;9.170;2024-01-30T07:13:47;2.20;99.90
39621;DHT22;25309;48.686;9.170;2024-01-30T07:16:14;2.30;99.90
39621;DHT22;25309;48.686;9.170;2024-01-30T07:18:41;2.30;99.90
39621;DHT22;25309;48.686;9.170;2024-01-30T07:21:08;2.40;99.90
39621;DHT22;25309;48.686;9.170;2024-01-30T07:23:35;2.50;99.90
39621;DHT22;25309;48.686;9.170;2024-01-30T07:26:02;2.60;99.90
39621;DHT22;25309;48.686;9.170;2024-01-30T07:28:29;2.50;99.90
39621;DHT22;25309;48.686;9.170;2024-01-30T07:30:58;2.50;99.90
39621;DHT22;25309;48.686;9.170;2024-01-30T07:33:25;2.40;99.90
39621;DHT22;25309;48.686;9.170;2024-01-30T07:35:53;2.50;99.90
39621;DHT22;25309;48.686;9.170;2024-01-30T07:38:20;2.60;99.90
39621;DHT22;25309;48.686;9.170;2024-01-30T07:40:47;2.90;99.90
39621;DHT22;25309;48.686;9.170;2024-01-30T07:43:14;3.00;99.90
39621;DHT22;25309;48.686;9.170;2024-01-30T07:45:41;3.20;99.90
39621;DHT22;25309;48.686;9.170;2024-01-30T07:48:09;3.30;99.90
39621;DHT22;25309;48.686;9.170;2024-01-30T07:50:37;3.50;99.90
39621;DHT22;25309;48.686;9.170;2024-01-30T07:53:04;3.50;99.90
39621;DHT22;25309;48.686;9.170;2024-01-30T07:55:31;3.50;99.90
39621;DHT22;25309;48.686;9.170;2024-01-30T07:57:59;3.50;99.90
39621;DHT22;25309;48.686;9.170;2024-01-30T08:00:27;3.50;99.90
39621;DHT22;25309;48.686;9.170;2024-01-30T08:02:56;3.50;99.90
39621;DHT22;25309;48.686;9.170;2024-01-30T08:05:25;3.50;99.90
39621;DHT22;25309;48.686;9.170;2024-01-30T08:07:52;3.50;99.90
39621;DHT22;25309;48.686;9.170;2024-01-30T08:10:19;3.60;99.90
39621;DHT22;25309;48.686;9.170;2024-01-30T08:12:47;3.70;99.90
39621;DHT22;25309;48.686;9.170;2024-01-30T08:15:14;3.80;99.90
39621;DHT22;25309;48.686;9.170;2024-01-30T08:17:41;4.10;99.90
39621;DHT22;25309;48.686;9.170;2024-01-30T08:20:09;4.40;99.90
39621;DHT22;25309;48.686;9.170;2024-01-30T08:22:39;4.60;99.90
39621;DHT22;25309;48.686;9.170;2024-01-30T08:25:07;5.00;99.90
39621;DHT22;25309;48.686;9.170;2024-01-30T08:27:35;5.40;99.90
39621;DHT22;25309;48.686;9.170;2024-01-30T08:30:05;5.80;99.90
39621;DHT22;25309;48.686;9.170;2024-01-30T08:32:33;6.10;99.90
39621;DHT22;25309;48.686;9.170;2024-01-30T08:35:00;6.30;99.90
39621;DHT22;25309;48.686;9.170;2024-01-30T08:37:30;6.60;99.90
39621;DHT22;25309;48.686;9.170;2024-01-30T08:39:59;7.10;99.90
39621;DHT22;25309;48.686;9.170;2024-01-30T08:42:26;7.70;99.90
39621;DHT22;25309;48.686;9.170;2024-01-30T08:44:53;8.60;99.90
39621;DHT22;25309;48.686;9.170;2024-01-30T08:47:21;9.60;99.90
39621;DHT22;25309;48.686;9.170;2024-01-30T08:49:48;10.30;99.90
39621;DHT22;25309;48.686;9.170;2024-01-30T08:52:15;10.80;99.90
39621;DHT22;25309;48.686;9.170;2024-01-30T08:54:42;10.90;99.90
39621;DHT22;25309;48.686;9.170;2024-01-30T08:57:10;10.60;99.90
39621;DHT22;25309;48.686;9.170;2024-01-30T08:59:37;10.40;99.90
39621;DHT22;25309;48.686;9.170;2024-01-30T09:02:04;10.50;99.90
39621;DHT22;25309;48.686;9.170;2024-01-30T09:04:39;10.70;99.90
39621;DHT22;25309;48.686;9.170;2024-01-30T09:07:08;11.00;99.90
39621;DHT22;25309;48.686;9.170;2024-01-30T09:09:37;11.10;99.70
39621;DHT22;25309;48.686;9.170;2024-01-30T09:12:06;11.00;99.90
39621;DHT22;25309;48.686;9.170;2024-01-30T09:14:39;10.70;99.90
39621;DHT22;25309;48.686;9.170;2024-01-30T09:17:07;10.40;99.90
39621;DHT22;25309;48.686;9.170;2024-01-30T09:19:34;10.00;99.90
39621;DHT22;25309;48.686;9.170;2024-01-30T09:22:01;9.80;99.90
39621;DHT22;25309;48.686;9.170;2024-01-30T09:24:28;9.80;99.90
39621;DHT22;25309;48.686;9.170;2024-01-30T09:26:56;10.00;99.90
39621;DHT22;25309;48.686;9.170;2024-01-30T09:29:23;10.10;99.90
39621;DHT22;25309;48.686;9.170;2024-01-30T09:31:51;10.30;99.90
39621;DHT22;25309;48.686;9.170;2024-01-30T09:34:18;10.70;99.90
39621;DHT22;25309;48.686;9.170;2024-01-30T09:36:45;11.20;99.90
39621;DHT22;25309;48.686;9.170;2024-01-30T09:39:12;11.40;99.90
39621;DHT22;25309;48.686;9.170;2024-01-30T09:41:45;11.80;99.90
39621;DHT22;25309;48.686;9.170;2024-01-30T09:44:13;12.10;99.90
39621;DHT22;25309;48.686;9.170;2024-01-30T09:46:42;12.30;99.60
39621;DHT22;25309;48.686;9.170;2024-01-30T09:49:11;12.30;99.60
39621;DHT22;25309;48.686;9.170;2024-01-30T09:51:39;12.20;99.00
39621;DHT22;25309;48.686;9.170;2024-01-30T09:54:08;11.90;99.60
39621;DHT22;25309;48.686;9.170;2024-01-30T09:56:36;11.70;99.60
39621;DHT22;25309;48.686;9.170;2024-01-30T09:59:03;11.60;99.30
39621;DHT22;25309;48.686;9.170;2024-01-30T10:01:31;11.70;98.90
39621;DHT22;25309;48.686;9.170;2024-01-30T10:03:58;12.00;99.50
39621;DHT22;25309;48.686;9.170;2024-01-30T10:06:27;12.50;99.30
39621;DHT22;25309;48.686;9.170;2024-01-30T10:08:55;13.10;98.80
39621;DHT22;25309;48.686;9.170;2024-01-30T10:11:22;13.40;98.40
39621;DHT22;25309;48.686;9.170;2024-01-30T10:13:52;13.70;97.60
39621;DHT22;25309;48.686;9.170;2024-01-30T10:16:19;13.70;97.50
39621;DHT22;25309;48.686;9.170;2024-01-30T10:18:46;13.60;97.70
39621;DHT22;25309;48.686;9.170;2024-01-30T10:21:14;13.50;97.60
39621;DHT22;25309;48.686;9.170;2024-01-30T10:23:43;13.30;97.60
39621;DHT22;25309;48.686;9.170;2024-01-30T10:26:11;13.10;98.00
39621;DHT22;25309;48.686;9.170;2024-01-30T10:28:38;13.00;98.40
39621;DHT22;25309;48.686;9.170;2024-01-30T10:31:05;12.90;98.80
39621;DHT22;25309;48.686;9.170;2024-01-30T10:33:33;12.70;99.00
39621;DHT22;25309;48.686;9.170;2024-01-30T10:36:03;12.50;99.40
39621;DHT22;25309;48.686;9.170;2024-01-30T10:38:31;12.30;99.40
39621;DHT22;25309;48.686;9.170;2024-01-30T10:41:00;12.10;99.50
39621;DHT22;25309;48.686;9.170;2024-01-30T10:43:31;11.80;99.90
39621;DHT22;25309;48.686;9.170;2024-01-30T10:46:06;11.60;99.90
39621;DHT22;25309;48.686;9.170;2024-01-30T10:48:42;11.50;99.90
39621;DHT22;25309;48.686;9.170;2024-01-30T10:51:10;11.50;99.90
39621;DHT22;25309;48.686;9.170;2024-01-30T10:53:38;11.40;99.90
39621;DHT22;25309;48.686;9.170;2024-01-30T10:56:08;11.30;99.90
39621;DHT22;25309;48.686;9.170;2024-01-30T10:58:37;11.30;99.90
39621;DHT22;25309;48.686;9.170;2024-01-30T11:01:05;11.40;99.90
39621;DHT22;25309;48.686;9.170;2024-01-30T11:03:33;11.50;99.90
39621;DHT22;25309;48.686;9.170;2024-01-30T11:06:03;11.50;99.90
39621;DHT22;25309;48.686;9.170;2024-01-30T11:08:32;11.70;99.90
39621;DHT22;25309;48.686;9.170;2024-01-30T11:10:59;11.80;99.90
39621;DHT22;25309;48.686;9.170;2024-01-30T11:13:29;11.90;99.90
39621;DHT22;25309;48.686;9.170;2024-01-30T11:16:00;12.00;99.90
39621;DHT22;25309;48.686;9.170;2024-01-30T11:18:29;12.00;99.90
39621;DHT22;25309;48.686;9.170;2024-01-30T11:20:57;12.00;99.90
39621;DHT22;25309;48.686;9.170;2024-01-30T11:23:26;12.00;99.90
39621;DHT22;25309;48.686;9.170;2024-01-30T11:25:54;12.10;99.90
39621;DHT22;25309;48.686;9.170;2024-01-30T11:28:22;12.10;99.90
39621;DHT22;25309;48.686;9.170;2024-01-30T11:30:50;12.10;99.90
39621;DHT22;25309;48.686;9.170;2024-01-30T11:33:28;12.20;99.90
39621;DHT22;25309;48.686;9.170;2024-01-30T11:36:01;12.30;99.90
39621;DHT22;25309;48.686;9.170;2024-01-30T11:38:34;12.40;99.90
39621;DHT22;25309;48.686;9.170;2024-01-30T11:41:01;12.50;99.90
39621;DHT22;25309;48.686;9.170;2024-01-30T11:43:29;12.40;99.90
39621;DHT22;25309;48.686;9.170;2024-01-30T11:45:57;12.30;99.90
39621;DHT22;25309;48.686;9.170;2024-01-30T11:48:26;12.30;97.60
39621;DHT22;25309;48.686;9.170;2024-01-30T11:50:54;12.30;97.60
39621;DHT22;25309;48.686;9.170;2024-01-30T11:53:21;12.30;96.70
39621;DHT22;25309;48.686;9.170;2024-01-30T11:55:52;12.40;96.00
39621;DHT22;25309;48.686;9.170;2024-01-30T11:58:19;12.30;95.10
39621;DHT22;25309;48.686;9.170;2024-01-30T12:00:53;12.30;95.30
39621;DHT22;25309;48.686;9.170;2024-01-30T12:03:22;12.30;95.10
39621;DHT22;25309;48.686;9.170;2024-01-30T12:05:55;12.30;95.40
39621;DHT22;25309;48.686;9.170;2024-01-30T12:08:23;12.40;95.30
39621;DHT22;25309;48.686;9.170;2024-01-30T12:10:56;12.40;95.10
39621;DHT22;25309;48.686;9.170;2024-01-30T12:13:23;12.40;94.60
39621;DHT22;25309;48.686;9.170;2024-01-30T12:15:51;12.40;94.70
39621;DHT22;25309;48.686;9.170;2024-01-30T12:18:18;12.40;94.40
39621;DHT22;25309;48.686;9.170;2024-01-30T12:20:56;12.50;94.20
39621;DHT22;25309;48.686;9.170;2024-01-30T12:23:24;12.60;94.30
39621;DHT22;25309;48.686;9.170;2024-01-30T12:25:52;12.90;94.80
39621;DHT22;25309;48.686;9.170;2024-01-30T12:28:19;13.10;93.90
39621;DHT22;25309;48.686;9.170;2024-01-30T12:30:46;13.20;93.80
39621;DHT22;25309;48.686;9.170;2024-01-30T12:33:16;13.20;93.80
39621;DHT22;25309;48.686;9.170;2024-01-30T12:35:47;13.20;93.70
39621;DHT22;25309;48.686;9.170;2024-01-30T12:38:28;13.20;93.60
39621;DHT22;25309;48.686;9.170;2024-01-30T12:40:56;13.20;93.40
39621;DHT22;25309;48.686;9.170;2024-01-30T12:43:24;13.20;93.40
39621;DHT22;25309;48.686;9.170;2024-01-30T12:46:04;13.30;93.30
39621;DHT22;25309;48.686;9.170;2024-01-30T12:48:31;13.50;93.20
39621;DHT22;25309;48.686;9.170;2024-01-30T12:51:00;13.90;92.60
39621;DHT22;25309;48.686;9.170;2024-01-30T12:53:27;14.20;92.50
39621;DHT22;25309;48.686;9.170;2024-01-30T12:55:54;14.40;92.00
39621;DHT22;25309;48.686;9.170;2024-01-30T12:58:21;14.50;92.60
39621;DHT22;25309;48.686;9.170;2024-01-30T13:00:48;14.70;92.00
39621;DHT22;25309;48.686;9.170;2024-01-30T13:03:16;14.70;91.30
39621;DHT22;25309;48.686;9.170;2024-01-30T13:05:43;15.00;91.30
39621;DHT22;25309;48.686;9.170;2024-01-30T13:08:11;15.20;91.00
39621;DHT22;25309;48.686;9.170;2024-01-30T13:10:38;15.20;90.50
39621;DHT22;25309;48.686;9.170;2024-01-30T13:13:05;15.10;90.50
39621;DHT22;25309;48.686;9.170;2024-01-30T13:15:40;14.90;90.80
39621;DHT22;25309;48.686;9.170;2024-01-30T13:18:07;15.00;91.00
39621;DHT22;25309;48.686;9.170;2024-01-30T13:20:34;15.10;90.80
39621;DHT22;25309;48.686;9.170;2024-01-30T13:23:01;15.10;90.90
39621;DHT22;25309;48.686;9.170;2024-01-30T13:25:29;15.00;91.00
39621;DHT22;25309;48.686;9.170;2024-01-30T13:27:57;15.00;90.80
39621;DHT22;25309;48.686;9.170;2024-01-30T13:30:24;15.20;91.00
39621;DHT22;25309;48.686;9.170;2024-01-30T13:32:51;15.10;90.60
39621;DHT22;25309;48.686;9.170;2024-01-30T13:35:18;15.00;91.00
39621;DHT22;25309;48.686;9.170;2024-01-30T13:37:45;14.90;91.00
39621;DHT22;25309;48.686;9.170;2024-01-30T13:40:14;14.90;91.40
39621;DHT22;25309;48.686;9.170;2024-01-30T13:42:44;14.90;91.50
39621;DHT22;25309;48.686;9.170;2024-01-30T13:45:11;15.00;91.20
39621;DHT22;25309;48.686;9.170;2024-01-30T13:47:38;15.10;91.20
39621;DHT22;25309;48.686;9.170;2024-01-30T13:50:06;15.30;91.00
39621;DHT22;25309;48.686;9.170;2024-01-30T13:52:33;15.30;91.00
39621;DHT22;25309;48.686;9.170;2024-01-30T13:55:10;15.20;91.10
39621;DHT22;25309;48.686;9.170;2024-01-30T13:57:38;15.20;90.90
39621;DHT22;25309;48.686;9.170;2024-01-30T14:00:07;15.20;90.50
39621;DHT22;25309;48.686;9.170;2024-01-30T14:02:41;15.10;91.10
39621;DHT22;25309;48.686;9.170;2024-01-30T14:05:08;15.00;91.00
39621;DHT22;25309;48.686;9.170;2024-01-30T14:07:36;14.70;91.20
39621;DHT22;25309;48.686;9.170;2024-01-30T14:10:04;14.50;91.50
39621;DHT22;25309;48.686;9.170;2024-01-30T14:12:37;14.40;91.50
39621;DHT22;25309;48.686;9.170;2024-01-30T14:15:05;14.40;91.70
39621;DHT22;25309;48.686;9.170;2024-01-30T14:17:47;14.20;91.80
39621;DHT22;25309;48.686;9.170;2024-01-30T14:20:15;14.20;92.10
39621;DHT22;25309;48.686;9.170;2024-01-30T14:22:45;14.20;92.20
39621;DHT22;25309;48.686;9.170;2024-01-30T14:25:12;14.30;92.30
39621;DHT22;25309;48.686;9.170;2024-01-30T14:27:39;14.30;92.20
39621;DHT22;25309;48.686;9.170;2024-01-30T14:30:09;14.30;92.20
39621;DHT22;25309;48.686;9.170;2024-01-30T14:32:37;14.30;92.20
39621;DHT22;25309;48.686;9.170;2024-01-30T14:35:06;14.30;92.50
39621;DHT22;25309;48.686;9.170;2024-01-30T14:37:34;14.20;92.30
39621;DHT22;25309;48.686;9.170;2024-01-30T14:40:01;14.20;92.70
39621;DHT22;25309;48.686;9.170;2024-01-30T14:42:28;14.20;92.80
39621;DHT22;25309;48.686;9.170;2024-01-30T14:44:58;14.30;92.70
39621;DHT22;25309;48.686;9.170;2024-01-30T14:47:25;14.20;92.80
39621;DHT22;25309;48.686;9.170;2024-01-30T14:49:53;14.10;92.70
39621;DHT22;25309;48.686;9.170;2024-01-30T14:52:21;14.00;93.10
39621;DHT22;25309;48.686;9.170;2024-01-30T14:54:49;13.80;93.20
39621;DHT22;25309;48.686;9.170;2024-01-30T14:57:16;13.70;93.10
39621;DHT22;25309;48.686;9.170;2024-01-30T14:59:43;13.60;93.30
39621;DHT22;25309;48.686;9.170;2024-01-30T15:02:10;13.50;93.40
39621;DHT22;25309;48.686;9.170;2024-01-30T15:04:38;13.30;93.50
39621;DHT22;25309;48.686;9.170;2024-01-30T15:07:05;13.30;93.70
39621;DHT22;25309;48.686;9.170;2024-01-30T15:09:33;13.30;93.80
39621;DHT22;25309;48.686;9.170;2024-01-30T15:12:01;13.20;94.00
39621;DHT22;25309;48.686;9.170;2024-01-30T15:14:28;13.10;94.10
39621;DHT22;25309;48.686;9.170;2024-01-30T15:16:55;13.10;94.30
39621;DHT22;25309;48.686;9.170;2024-01-30T15:19:22;13.10;94.80
39621;DHT22;25309;48.686;9.170;2024-01-30T15:21:49;13.10;94.50
39621;DHT22;25309;48.686;9.170;2024-01-30T15:24:16;13.00;94.60
39621;DHT22;25309;48.686;9.170;2024-01-30T15:26:46;13.00;94.80
39621;DHT22;25309;48.686;9.170;2024-01-30T15:29:13;12.90;94.80
39621;DHT22;25309;48.686;9.170;2024-01-30T15:31:40;12.90;95.10
39621;DHT22;25309;48.686;9.170;2024-01-30T15:34:07;12.90;95.30
39621;DHT22;25309;48.686;9.170;2024-01-30T15:36:34;12.80;95.50
39621;DHT22;25309;48.686;9.170;2024-01-30T15:39:01;12.80;95.50
39621;DHT22;25309;48.686;9.170;2024-01-30T15:41:29;12.80;95.50
39621;DHT22;25309;48.686;9.170;2024-01-30T15:43:57;12.80;95.90